createdAt,value
2023-04-04T00:03:28.328Z,3.73
2023-04-04T00:08:31.207Z,3.43
2023-04-04T00:13:34.240Z,2.90
2023-04-04T00:18:37.043Z,2.03
2023-04-04T00:23:39.781Z,2.90
2023-04-04T00:28:42.552Z,2.27
2023-04-04T00:33:45.414Z,2.30
2023-04-04T00:38:48.173Z,3.07
2023-04-04T00:43:51.042Z,2.63
2023-04-04T00:48:54.693Z,2.60
2023-04-04T00:53:57.613Z,2.77
2023-04-04T00:59:01.675Z,2.43
2023-04-04T01:04:05.767Z,2.17
2023-04-04T01:09:08.608Z,3.17
2023-04-04T01:14:11.405Z,2.43
2023-04-04T01:19:19.577Z,2.37
2023-04-04T01:24:22.724Z,2.43
2023-04-04T01:29:25.520Z,2.97
2023-04-04T01:34:41.024Z,2.60
2023-04-04T01:39:57.219Z,2.87
2023-04-04T01:45:00.031Z,2.90
2023-04-04T01:50:03.579Z,2.67
2023-04-04T01:55:07.015Z,2.07
2023-04-04T02:00:11.015Z,2.30
2023-04-04T02:05:13.847Z,3.27
2023-04-04T02:10:16.855Z,2.20
2023-04-04T02:15:19.594Z,3.53
2023-04-04T02:20:22.689Z,2.13
2023-04-04T02:25:26.259Z,2.13
2023-04-04T02:30:29.044Z,3.30
2023-04-04T02:35:32.263Z,2.00
2023-04-04T02:40:39.535Z,2.83
2023-04-04T02:45:42.498Z,3.20
2023-04-04T02:50:47.697Z,2.57
2023-04-04T02:55:50.507Z,3.00
2023-04-04T03:00:56.733Z,2.60
2023-04-04T03:06:00.229Z,2.80
2023-04-04T03:11:03.116Z,2.50
2023-04-04T03:16:08.864Z,2.83
2023-04-04T03:21:11.744Z,2.20
2023-04-04T03:26:15.256Z,2.73
2023-04-04T03:31:18.084Z,2.43
2023-04-04T03:36:21.321Z,1.77
2023-04-04T03:41:24.093Z,3.37
2023-04-04T03:46:27.058Z,3.20
2023-04-04T03:51:29.970Z,2.43
2023-04-04T03:56:33.015Z,2.03
2023-04-04T04:01:36.060Z,2.63
2023-04-04T04:06:38.891Z,3.03
2023-04-04T04:11:41.764Z,2.60
2023-04-04T04:16:44.572Z,2.50
2023-04-04T04:21:48.076Z,2.10
2023-04-04T04:26:50.875Z,2.50
2023-04-04T04:31:53.854Z,2.30
2023-04-04T04:36:56.745Z,2.37
2023-04-04T04:41:59.566Z,2.73
2023-04-04T04:47:03.851Z,2.67
2023-04-04T04:52:06.808Z,2.27
2023-04-04T04:57:09.616Z,2.30
2023-04-04T05:02:12.413Z,2.60
2023-04-04T05:07:15.234Z,2.37
2023-04-04T05:12:18.988Z,3.00
2023-04-04T05:17:23.052Z,3.23
2023-04-04T05:22:26.284Z,2.20
2023-04-04T05:27:29.040Z,3.13
2023-04-04T05:32:31.909Z,3.07
2023-04-04T05:37:38.314Z,2.53
2023-04-04T05:42:41.083Z,3.13
2023-04-04T05:47:44.983Z,3.20
2023-04-04T05:52:48.021Z,3.77
2023-04-04T05:57:51.568Z,3.23
2023-04-04T06:02:58.554Z,2.73
2023-04-04T06:08:01.484Z,3.70
2023-04-04T06:13:04.289Z,3.67
2023-04-04T06:18:07.114Z,3.53
2023-04-04T06:23:10.238Z,2.53
2023-04-04T06:28:15.902Z,2.50
2023-04-04T06:33:18.709Z,2.30
2023-04-04T06:38:21.710Z,2.77
2023-04-04T06:43:25.148Z,2.53
2023-04-04T06:48:27.892Z,1.83
2023-04-04T06:53:30.982Z,2.13
2023-04-04T06:58:33.848Z,1.93
2023-04-04T07:03:36.633Z,2.40
2023-04-04T07:08:39.405Z,2.40
2023-04-04T07:13:42.212Z,2.83
2023-04-04T07:18:45.078Z,2.27
2023-04-04T07:23:47.848Z,1.97
2023-04-04T07:28:50.610Z,1.70
2023-04-04T07:33:54.099Z,2.03
2023-04-04T07:38:56.990Z,2.17
2023-04-04T07:43:59.797Z,1.20
2023-04-04T07:49:02.678Z,2.17
2023-04-04T07:54:05.536Z,2.20
2023-04-04T07:59:08.384Z,1.63
2023-04-04T08:04:11.445Z,2.10
2023-04-04T08:09:14.240Z,1.80
2023-04-04T08:14:17.244Z,2.00
2023-04-04T08:19:20.525Z,1.83
2023-04-04T08:24:24.844Z,1.57
2023-04-04T08:29:29.047Z,1.50
2023-04-04T08:34:32.169Z,1.73
2023-04-04T08:39:35.054Z,2.20
2023-04-04T08:44:40.337Z,1.63
2023-04-04T08:49:44.661Z,2.00
2023-04-04T08:54:48.513Z,1.60
2023-04-04T08:59:51.606Z,2.13
2023-04-04T09:05:05.671Z,1.93
2023-04-04T09:10:11.820Z,1.67
2023-04-04T09:15:15.010Z,1.70
2023-04-04T09:20:41.423Z,1.60
2023-04-04T09:31:05.835Z,1.40
2023-04-04T09:36:12.692Z,1.50
2023-04-04T09:41:16.535Z,2.37
2023-04-04T09:46:23.413Z,1.57
2023-04-04T09:51:27.423Z,1.50
2023-04-04T09:56:32.125Z,1.97
2023-04-04T10:01:35.923Z,1.37
2023-04-04T10:06:38.827Z,1.50
2023-04-04T10:11:41.642Z,1.97
2023-04-04T10:16:46.492Z,1.80
2023-04-04T10:21:49.800Z,1.60
2023-04-04T10:26:54.199Z,1.90
2023-04-04T10:32:06.308Z,1.90
2023-04-04T10:37:13.237Z,1.67
2023-04-04T10:42:16.853Z,1.77
2023-04-04T10:47:22.321Z,1.83
2023-04-04T10:52:27.541Z,2.50
2023-04-04T10:57:30.738Z,1.70
2023-04-04T11:03:00.356Z,1.50
2023-04-04T11:08:08.620Z,1.60
2023-04-04T11:13:40.422Z,1.50
2023-04-04T11:18:45.923Z,1.90
2023-04-04T11:23:48.843Z,2.10
2023-04-04T11:28:51.663Z,2.20
2023-04-04T11:34:05.915Z,1.90
2023-04-04T11:39:29.407Z,1.90
2023-04-04T11:44:33.702Z,2.50
2023-04-04T11:49:41.649Z,1.63
2023-04-04T11:54:46.355Z,2.37
2023-04-04T11:59:51.538Z,2.00
2023-04-04T12:04:55.441Z,2.20
2023-04-04T12:09:58.714Z,1.63
2023-04-04T12:15:14.657Z,2.27
2023-04-04T12:20:24.141Z,3.70
2023-04-04T12:25:29.587Z,2.40
2023-04-04T12:30:33.280Z,1.80
2023-04-04T12:35:36.193Z,1.97
2023-04-04T12:40:39.704Z,2.00
2023-04-04T12:45:43.864Z,2.07
2023-04-04T12:50:55.036Z,2.67
2023-04-04T12:56:03.301Z,2.20
2023-04-04T13:01:07.076Z,1.80
2023-04-04T13:06:19.813Z,2.10
2023-04-04T13:11:23.287Z,2.20
2023-04-04T13:16:35.530Z,1.93
2023-04-04T13:21:40.865Z,1.93
2023-04-04T13:26:43.646Z,1.90
2023-04-04T13:31:46.638Z,2.83
2023-04-04T13:36:49.539Z,2.30
2023-04-04T13:41:53.906Z,1.93
2023-04-04T13:46:56.706Z,2.50
2023-04-04T13:51:59.662Z,2.47
2023-04-04T13:57:02.502Z,2.30
2023-04-04T14:02:05.433Z,2.40
2023-04-04T14:07:08.372Z,1.80
2023-04-04T14:12:11.257Z,2.43
2023-04-04T14:17:14.167Z,2.10
2023-04-04T14:22:17.213Z,2.27
2023-04-04T14:27:19.958Z,2.27
2023-04-04T14:32:22.769Z,2.03
2023-04-04T14:37:26.057Z,1.77
2023-04-04T14:42:28.844Z,2.37
2023-04-04T14:47:31.730Z,1.87
2023-04-04T14:52:34.565Z,2.00
2023-04-04T14:57:51.862Z,2.13
2023-04-04T15:03:01.074Z,1.87
2023-04-04T15:08:04.335Z,2.23
2023-04-04T15:13:07.200Z,2.70
2023-04-04T15:18:09.979Z,1.87
2023-04-04T15:23:12.753Z,2.20
2023-04-04T15:28:15.580Z,2.47
2023-04-04T15:33:18.395Z,2.20
2023-04-04T15:38:21.621Z,2.50
2023-04-04T15:43:25.369Z,1.73
2023-04-04T15:48:28.212Z,2.33
2023-04-04T15:53:31.820Z,1.93
2023-04-04T15:58:34.607Z,2.53
2023-04-04T16:03:37.578Z,2.13
2023-04-04T16:08:42.102Z,1.83
2023-04-04T16:13:44.919Z,2.83
2023-04-04T16:18:47.737Z,2.13
2023-04-04T16:23:51.106Z,2.30
2023-04-04T16:28:53.892Z,2.73
2023-04-04T16:33:56.709Z,2.13
2023-04-04T16:38:59.828Z,2.07
2023-04-04T16:44:02.645Z,2.07
2023-04-04T16:49:05.595Z,2.40
2023-04-04T16:54:08.949Z,2.50
2023-04-04T16:59:11.738Z,2.60
2023-04-04T17:04:15.437Z,2.57
2023-04-04T17:09:18.221Z,2.50
2023-04-04T17:14:21.462Z,3.17
2023-04-04T17:19:24.239Z,3.30
2023-04-04T17:24:27.451Z,3.20
2023-04-04T17:29:30.773Z,3.23
2023-04-04T17:34:33.817Z,3.13
2023-04-04T17:39:37.715Z,3.33
2023-04-04T17:44:40.694Z,2.53
2023-04-04T17:49:43.849Z,3.43
2023-04-04T17:54:50.055Z,2.70
2023-04-04T17:59:53.136Z,2.60
2023-04-04T18:04:57.805Z,3.37
2023-04-04T18:10:00.665Z,3.70
2023-04-04T18:15:04.079Z,2.93
2023-04-04T18:20:08.477Z,3.67
2023-04-04T18:25:11.428Z,3.27
2023-04-04T18:30:14.357Z,3.20
2023-04-04T18:35:17.289Z,3.40
2023-04-04T18:40:20.630Z,2.97
2023-04-04T18:45:33.741Z,3.73
2023-04-04T18:50:42.765Z,2.87
2023-04-04T18:55:46.411Z,3.47
2023-04-04T19:00:52.441Z,4.43
2023-04-04T19:05:56.238Z,5.03
2023-04-04T19:10:59.346Z,5.63
2023-04-04T19:16:02.242Z,5.43
2023-04-04T19:21:06.372Z,5.57
2023-04-04T19:26:09.261Z,4.97
2023-04-04T19:31:20.532Z,4.57
2023-04-04T19:36:24.684Z,4.30
2023-04-04T19:41:34.654Z,5.20
2023-04-04T19:46:37.916Z,4.93
2023-04-04T19:51:55.360Z,6.17
2023-04-04T19:57:06.404Z,6.43
2023-04-04T20:02:22.234Z,7.67
2023-04-04T20:07:26.027Z,6.90
2023-04-04T20:12:29.317Z,7.07
2023-04-04T20:17:32.177Z,8.60
2023-04-04T20:22:34.939Z,6.40
2023-04-04T20:27:37.736Z,8.83
2023-04-04T20:32:40.678Z,6.53
2023-04-04T20:37:43.515Z,7.93
2023-04-04T20:42:46.759Z,7.67
2023-04-04T20:47:52.200Z,6.37
2023-04-04T20:52:58.980Z,6.67
2023-04-04T20:58:09.715Z,6.37
2023-04-04T21:03:35.583Z,7.07
2023-04-04T21:08:38.316Z,7.73
2023-04-04T21:13:42.340Z,5.57
2023-04-04T21:18:45.769Z,6.20
2023-04-04T21:23:57.214Z,5.57
2023-04-04T21:29:02.648Z,7.13
2023-04-04T21:34:13.982Z,7.10
2023-04-04T21:39:29.586Z,8.20
2023-04-04T21:44:32.803Z,7.73
2023-04-04T21:49:35.601Z,8.37
2023-04-04T21:54:38.389Z,8.67
2023-04-04T21:59:41.139Z,7.83
2023-04-04T22:04:43.897Z,9.10
2023-04-04T22:09:46.734Z,8.93
2023-04-04T22:14:51.263Z,8.13
2023-04-04T22:20:00.055Z,8.17
2023-04-04T22:25:06.963Z,9.23
2023-04-04T22:30:10.032Z,10.70
2023-04-04T22:35:12.858Z,10.47
2023-04-04T22:40:15.622Z,8.83
2023-04-04T22:45:18.574Z,9.20
2023-04-04T22:50:26.753Z,8.17
2023-04-04T22:55:30.788Z,8.67
2023-04-04T23:00:34.200Z,10.17
2023-04-04T23:05:36.950Z,12.83
2023-04-04T23:10:39.993Z,11.37
2023-04-04T23:15:45.130Z,10.50
2023-04-04T23:20:47.960Z,10.43
2023-04-04T23:25:51.653Z,9.10
2023-04-04T23:30:54.722Z,8.03
2023-04-04T23:35:57.566Z,6.77
2023-04-04T23:41:00.374Z,7.33
2023-04-04T23:46:03.556Z,9.73
2023-04-04T23:51:08.503Z,7.53
2023-04-04T23:56:12.426Z,6.60
